createdAt,value
2023-04-16T00:01:01.251Z,92784.66
2023-04-16T00:03:27.889Z,92782.31
2023-04-16T00:05:55.912Z,92783.81
2023-04-16T00:08:24.658Z,92776.63
2023-04-16T00:10:52.637Z,92778.22
2023-04-16T00:13:19.156Z,92764.47
2023-04-16T00:15:45.750Z,92776.84
2023-04-16T00:18:12.217Z,92770.28
2023-04-16T00:20:38.683Z,92779.19
2023-04-16T00:23:05.232Z,92768.78
2023-04-16T00:25:31.678Z,92761.50
2023-04-16T00:27:58.135Z,92774.16
2023-04-16T00:30:24.607Z,92776.28
2023-04-16T00:32:51.062Z,92763.97
2023-04-16T00:35:17.634Z,92772.97
2023-04-16T00:37:44.080Z,92782.94
2023-04-16T00:40:11.066Z,92771.03
2023-04-16T00:42:38.114Z,92779.53
2023-04-16T00:45:05.576Z,92776.28
2023-04-16T00:47:32.121Z,92781.13
2023-04-16T00:49:58.598Z,92784.88
2023-04-16T00:52:25.994Z,92775.94
2023-04-16T00:54:52.611Z,92778.22
2023-04-16T00:57:21.004Z,92774.34
2023-04-16T00:59:47.523Z,92773.25
2023-04-16T01:02:14.332Z,92780.38
2023-04-16T01:04:40.852Z,92779.19
2023-04-16T01:07:07.375Z,92767.69
2023-04-16T01:09:33.830Z,92773.50
2023-04-16T01:12:00.358Z,92775.00
2023-04-16T01:14:26.834Z,92768.22
2023-04-16T01:16:53.332Z,92772.97
2023-04-16T01:19:19.787Z,92766.09
2023-04-16T01:21:46.650Z,92766.09
2023-04-16T01:24:13.118Z,92768.03
2023-04-16T01:26:39.579Z,92768.78
2023-04-16T01:29:06.361Z,92771.47
2023-04-16T01:31:33.019Z,92769.09
2023-04-16T01:33:59.577Z,92768.22
2023-04-16T01:36:26.861Z,92765.34
2023-04-16T01:38:53.328Z,92767.41
2023-04-16T01:41:19.947Z,92765.47
2023-04-16T01:43:46.398Z,92766.97
2023-04-16T01:46:14.302Z,92773.09
2023-04-16T01:48:40.799Z,92772.34
2023-04-16T01:51:07.258Z,92774.72
2023-04-16T01:53:35.799Z,92772.56
2023-04-16T01:56:03.610Z,92775.22
2023-04-16T01:58:30.700Z,92766.44
2023-04-16T02:00:57.279Z,92774.50
2023-04-16T02:03:24.886Z,92774.06
2023-04-16T02:05:51.634Z,92774.72
2023-04-16T02:08:18.248Z,92773.53
2023-04-16T02:10:48.958Z,92773.53
2023-04-16T02:13:16.224Z,92772.44
2023-04-16T02:15:49.929Z,92781.56
2023-04-16T02:18:16.503Z,92783.81
2023-04-16T02:20:43.511Z,92783.06
2023-04-16T02:23:10.258Z,92782.50
2023-04-16T02:25:41.245Z,92778.97
2023-04-16T02:28:08.875Z,92785.59
2023-04-16T02:30:36.555Z,92783.25
2023-04-16T02:33:05.451Z,92787.44
2023-04-16T02:35:35.163Z,92787.75
2023-04-16T02:38:01.955Z,92796.75
2023-04-16T02:40:28.573Z,92793.00
2023-04-16T02:42:55.611Z,92795.47
2023-04-16T02:45:22.192Z,92792.91
2023-04-16T02:47:49.037Z,92792.78
2023-04-16T02:50:15.984Z,92791.19
2023-04-16T02:52:42.460Z,92798.06
2023-04-16T02:55:09.691Z,92801.69
2023-04-16T02:57:36.435Z,92806.84
2023-04-16T03:00:04.948Z,92801.16
2023-04-16T03:02:31.843Z,92803.19
2023-04-16T03:04:58.477Z,92799.34
2023-04-16T03:07:24.961Z,92803.94
2023-04-16T03:09:51.512Z,92805.13
2023-04-16T03:12:17.961Z,92806.75
2023-04-16T03:14:44.401Z,92807.19
2023-04-16T03:17:10.889Z,92797.63
2023-04-16T03:19:37.338Z,92807.19
2023-04-16T03:22:04.044Z,92807.50
2023-04-16T03:24:30.594Z,92800.63
2023-04-16T03:27:00.116Z,92808.25
2023-04-16T03:29:27.180Z,92807.28
2023-04-16T03:31:53.647Z,92803.84
2023-04-16T03:34:20.416Z,92810.19
2023-04-16T03:36:46.910Z,92809.88
2023-04-16T03:39:13.362Z,92811.91
2023-04-16T03:41:39.853Z,92813.50
2023-04-16T03:44:06.308Z,92810.94
2023-04-16T03:46:32.844Z,92813.94
2023-04-16T03:48:59.420Z,92814.81
2023-04-16T03:51:26.438Z,92815.44
2023-04-16T03:53:53.052Z,92809.25
2023-04-16T03:56:19.519Z,92813.94
2023-04-16T03:58:45.996Z,92811.06
2023-04-16T04:01:12.454Z,92811.91
2023-04-16T04:03:39.087Z,92817.63
2023-04-16T04:06:09.064Z,92809.13
2023-04-16T04:08:35.573Z,92809.13
2023-04-16T04:11:02.069Z,92812.69
2023-04-16T04:13:28.570Z,92818.06
2023-04-16T04:15:55.163Z,92822.56
2023-04-16T04:18:21.724Z,92819.88
2023-04-16T04:20:48.232Z,92820.50
2023-04-16T04:23:14.699Z,92812.78
2023-04-16T04:25:41.172Z,92813.66
2023-04-16T04:28:07.637Z,92823.63
2023-04-16T04:30:35.727Z,92820.53
2023-04-16T04:33:02.331Z,92815.25
2023-04-16T04:35:28.864Z,92822.84
2023-04-16T04:37:55.618Z,92827.91
2023-04-16T04:40:22.089Z,92816.41
2023-04-16T04:42:48.548Z,92826.06
2023-04-16T04:45:15.179Z,92824.13
2023-04-16T04:47:41.682Z,92834.09
2023-04-16T04:50:08.509Z,92824.44
2023-04-16T04:52:34.980Z,92829.06
2023-04-16T04:55:01.661Z,92823.28
2023-04-16T04:57:28.164Z,92831.13
2023-04-16T04:59:54.616Z,92828.88
2023-04-16T05:02:21.183Z,92834.25
2023-04-16T05:04:47.713Z,92836.94
2023-04-16T05:07:14.208Z,92849.91
2023-04-16T05:09:40.673Z,92836.63
2023-04-16T05:12:07.162Z,92835.53
2023-04-16T05:14:33.659Z,92840.66
2023-04-16T05:17:00.272Z,92831.66
2023-04-16T05:19:26.862Z,92838.41
2023-04-16T05:21:53.336Z,92837.97
2023-04-16T05:24:19.965Z,92842.47
2023-04-16T05:26:46.467Z,92841.72
2023-04-16T05:29:12.916Z,92842.91
2023-04-16T05:31:39.424Z,92847.09
2023-04-16T05:34:05.897Z,92848.81
2023-04-16T05:36:32.354Z,92836.78
2023-04-16T05:38:58.788Z,92850.75
2023-04-16T05:41:25.510Z,92851.91
2023-04-16T05:43:51.998Z,92854.16
2023-04-16T05:46:18.510Z,92850.75
2023-04-16T05:48:45.354Z,92856.63
2023-04-16T05:51:11.904Z,92844.31
2023-04-16T05:53:38.381Z,92855.78
2023-04-16T05:56:05.363Z,92858.25
2023-04-16T05:58:31.876Z,92851.50
2023-04-16T06:00:58.368Z,92851.81
2023-04-16T06:03:24.948Z,92860.72
2023-04-16T06:05:51.761Z,92862.22
2023-04-16T06:08:18.270Z,92864.03
2023-04-16T06:10:47.469Z,92858.25
2023-04-16T06:13:13.951Z,92863.91
2023-04-16T06:15:40.429Z,92864.34
2023-04-16T06:18:06.931Z,92866.19
2023-04-16T06:20:33.460Z,92863.50
2023-04-16T06:22:59.970Z,92864.47
2023-04-16T06:25:26.427Z,92858.25
2023-04-16T06:27:52.877Z,92864.69
2023-04-16T06:30:20.014Z,92864.59
2023-04-16T06:32:46.587Z,92862.97
2023-04-16T06:35:13.124Z,92872.41
2023-04-16T06:37:39.612Z,92870.81
2023-04-16T06:40:06.545Z,92873.41
2023-04-16T06:42:33.082Z,92881.03
2023-04-16T06:44:59.532Z,92872.31
2023-04-16T06:47:27.074Z,92876.09
2023-04-16T06:49:53.663Z,92883.41
2023-04-16T06:52:20.130Z,92879.19
2023-04-16T06:54:46.586Z,92884.91
2023-04-16T06:57:13.051Z,92888.34
2023-04-16T06:59:39.606Z,92878.16
2023-04-16T07:02:06.603Z,92882.22
2023-04-16T07:04:33.158Z,92881.03
2023-04-16T07:06:59.613Z,92888.97
2023-04-16T07:09:27.195Z,92889.31
2023-04-16T07:11:54.176Z,92891.25
2023-04-16T07:14:20.628Z,92892.53
2023-04-16T07:16:47.138Z,92892.84
2023-04-16T07:19:13.641Z,92895.44
2023-04-16T07:21:41.981Z,92893.06
2023-04-16T07:24:08.506Z,92896.19
2023-04-16T07:26:34.999Z,92901.88
2023-04-16T07:29:01.465Z,92895.31
2023-04-16T07:31:27.965Z,92890.28
2023-04-16T07:33:54.450Z,92891.47
2023-04-16T07:36:21.189Z,92900.69
2023-04-16T07:38:47.669Z,92901.31
2023-04-16T07:41:14.506Z,92897.88
2023-04-16T07:43:40.960Z,92897.38
2023-04-16T07:46:07.564Z,92897.88
2023-04-16T07:48:34.059Z,92900.03
2023-04-16T07:51:00.613Z,92906.06
2023-04-16T07:53:27.100Z,92898.88
2023-04-16T07:55:53.571Z,92904.13
2023-04-16T07:58:20.039Z,92904.13
2023-04-16T08:00:46.499Z,92908.00
2023-04-16T08:03:13.104Z,92906.50
2023-04-16T08:05:39.749Z,92907.03
2023-04-16T08:08:06.321Z,92903.78
2023-04-16T08:10:33.265Z,92910.31
2023-04-16T08:13:02.772Z,92913.31
2023-04-16T08:15:29.477Z,92914.97
2023-04-16T08:17:56.030Z,92922.59
2023-04-16T08:20:22.582Z,92928.59
2023-04-16T08:22:49.208Z,92931.50
2023-04-16T08:25:15.681Z,92937.06
2023-04-16T08:27:42.140Z,92936.16
2023-04-16T08:30:08.963Z,92941.63
2023-04-16T08:32:35.436Z,92936.47
2023-04-16T08:35:02.056Z,92938.03
2023-04-16T08:37:28.525Z,92943.47
2023-04-16T08:39:55.032Z,92939.78
2023-04-16T08:42:32.467Z,92941.50
2023-04-16T08:45:09.273Z,92950.38
2023-04-16T08:47:38.699Z,92947.72
2023-04-16T08:50:05.974Z,92953.22
2023-04-16T08:52:32.689Z,92947.16
2023-04-16T08:55:07.131Z,92950.38
2023-04-16T08:57:47.268Z,92962.50
2023-04-16T09:00:14.115Z,92951.13
2023-04-16T09:02:40.824Z,92957.25
2023-04-16T09:05:07.920Z,92962.72
2023-04-16T09:07:34.720Z,92961.88
2023-04-16T09:10:04.021Z,92962.72
2023-04-16T09:12:30.876Z,92961.38
2023-04-16T09:14:58.642Z,92964.59
2023-04-16T09:17:25.139Z,92954.28
2023-04-16T09:19:51.603Z,92964.00
2023-04-16T09:22:18.128Z,92969.19
2023-04-16T09:24:44.588Z,92965.84
2023-04-16T09:27:12.102Z,92963.38
2023-04-16T09:29:40.499Z,92963.41
2023-04-16T09:32:08.460Z,92968.69
2023-04-16T09:34:35.928Z,92978.03
2023-04-16T09:37:14.976Z,92975.44
2023-04-16T09:39:42.745Z,92976.09
2023-04-16T09:42:09.513Z,92984.03
2023-04-16T09:44:38.837Z,92973.19
2023-04-16T09:47:08.981Z,92980.44
2023-04-16T09:49:38.704Z,92976.59
2023-04-16T09:52:05.432Z,92979.31
2023-04-16T09:54:31.901Z,92982.13
2023-04-16T09:56:58.355Z,92975.34
2023-04-16T09:59:25.590Z,92979.69
2023-04-16T10:02:14.936Z,92978.50
2023-04-16T10:04:51.665Z,92972.66
2023-04-16T10:07:18.539Z,92996.59
2023-04-16T10:09:48.408Z,92976.06
2023-04-16T10:12:14.934Z,92980.63
2023-04-16T10:14:41.757Z,92986.63
2023-04-16T10:17:09.134Z,92978.72
2023-04-16T10:19:35.977Z,92976.81
2023-04-16T10:22:02.978Z,92986.16
2023-04-16T10:24:30.210Z,92981.84
2023-04-16T10:26:56.971Z,92983.81
2023-04-16T10:29:23.534Z,92988.16
2023-04-16T10:31:50.148Z,92987.50
2023-04-16T10:34:16.822Z,92990.13
2023-04-16T10:36:43.324Z,92988.06
2023-04-16T10:39:17.039Z,92995.28
2023-04-16T10:41:43.880Z,92994.66
2023-04-16T10:44:10.462Z,92989.56
2023-04-16T10:46:41.531Z,92990.47
2023-04-16T10:49:23.309Z,92998.88
2023-04-16T10:51:57.197Z,92999.31
2023-04-16T10:54:27.321Z,92987.19
2023-04-16T10:56:56.107Z,92981.78
2023-04-16T10:59:23.143Z,92989.25
2023-04-16T11:01:56.924Z,92986.25
2023-04-16T11:04:33.202Z,92994.31
2023-04-16T11:07:15.057Z,92996.13
2023-04-16T11:09:50.491Z,92989.97
2023-04-16T11:12:18.648Z,92987.44
2023-04-16T11:14:58.124Z,92997.31
2023-04-16T11:17:33.118Z,92992.38
2023-04-16T11:19:59.624Z,93000.91
2023-04-16T11:22:26.174Z,92994.63
2023-04-16T11:24:56.413Z,93005.41
2023-04-16T11:27:24.105Z,93006.16
2023-04-16T11:30:27.972Z,93005.69
2023-04-16T11:32:54.483Z,93007.22
2023-04-16T11:35:21.064Z,93004.97
2023-04-16T11:37:50.606Z,93004.25
2023-04-16T11:40:17.084Z,93009.63
2023-04-16T11:42:44.278Z,93009.94
2023-04-16T11:45:11.884Z,93002.75
2023-04-16T11:47:51.892Z,93004.09
2023-04-16T11:50:22.629Z,93010.69
2023-04-16T11:52:49.759Z,93007.84
2023-04-16T11:55:16.647Z,93006.19
2023-04-16T11:57:43.152Z,93004.56
2023-04-16T12:00:14.068Z,93012.50
2023-04-16T12:02:44.212Z,93007.25
2023-04-16T12:05:30.983Z,93003.94
2023-04-16T12:07:58.083Z,93012.03
2023-04-16T12:10:24.664Z,93017.41
2023-04-16T12:12:51.122Z,93011.47
2023-04-16T12:15:17.574Z,93016.53
2023-04-16T12:17:44.085Z,93018.66
2023-04-16T12:20:11.814Z,93017.44
2023-04-16T12:22:40.313Z,93015.81
2023-04-16T12:25:16.871Z,93015.94
2023-04-16T12:27:46.890Z,93021.78
2023-04-16T12:30:14.817Z,93013.56
2023-04-16T12:32:41.901Z,93018.66
2023-04-16T12:35:09.945Z,93023.47
2023-04-16T12:37:37.215Z,93018.94
2023-04-16T12:40:05.049Z,93015.50
2023-04-16T12:42:35.841Z,93024.75
2023-04-16T12:45:04.026Z,93024.00
2023-04-16T12:47:31.502Z,93026.41
2023-04-16T12:49:58.052Z,93023.72
2023-04-16T12:52:25.197Z,93020.25
2023-04-16T12:54:52.259Z,93023.41
2023-04-16T12:57:18.980Z,93025.81
2023-04-16T12:59:46.939Z,93020.97
2023-04-16T13:02:13.775Z,93016.03
2023-04-16T13:04:40.516Z,93030.41
2023-04-16T13:07:07.190Z,93016.16
2023-04-16T13:09:33.636Z,93020.31
2023-04-16T13:12:00.273Z,93014.03
2023-04-16T13:14:26.742Z,93004.47
2023-04-16T13:16:53.230Z,93016.19
2023-04-16T13:19:19.718Z,93014.81
2023-04-16T13:21:46.240Z,93014.94
2023-04-16T13:24:12.691Z,93011.06
2023-04-16T13:26:39.164Z,93010.31
2023-04-16T13:29:05.663Z,93018.53
2023-04-16T13:31:32.167Z,93014.16
2023-04-16T13:33:58.681Z,93016.75
2023-04-16T13:36:27.572Z,93008.97
2023-04-16T13:38:54.533Z,93012.09
2023-04-16T13:41:21.003Z,93020.59
2023-04-16T13:43:47.530Z,93021.50
2023-04-16T13:46:14.016Z,93015.38
2023-04-16T13:48:40.611Z,93018.81
2023-04-16T13:51:08.172Z,93024.94
2023-04-16T13:53:34.626Z,93017.75
2023-04-16T13:56:03.570Z,93011.13
2023-04-16T13:58:30.360Z,93019.41
2023-04-16T14:00:56.859Z,93014.88
2023-04-16T14:03:24.834Z,93020.06
2023-04-16T14:05:51.381Z,93020.75
2023-04-16T14:08:17.832Z,93021.78
2023-04-16T14:10:44.292Z,93031.16
2023-04-16T14:13:11.009Z,93031.75
2023-04-16T14:15:37.464Z,93021.06
2023-04-16T14:18:04.120Z,93028.06
2023-04-16T14:20:30.747Z,93021.78
2023-04-16T14:22:57.391Z,93027.09
2023-04-16T14:25:23.990Z,93021.84
2023-04-16T14:27:51.157Z,93021.09
2023-04-16T14:30:17.728Z,93027.53
2023-04-16T14:32:44.304Z,93027.84
2023-04-16T14:35:10.842Z,93026.78
2023-04-16T14:37:38.336Z,93024.84
2023-04-16T14:40:08.177Z,93022.91
2023-04-16T14:42:36.621Z,93029.66
2023-04-16T14:45:06.331Z,93029.34
2023-04-16T14:47:34.240Z,93028.47
2023-04-16T14:50:01.303Z,93028.34
2023-04-16T14:52:30.349Z,93034.03
2023-04-16T14:54:57.084Z,93040.63
2023-04-16T14:57:23.646Z,93033.53
2023-04-16T14:59:50.443Z,93029.91
2023-04-16T15:02:16.992Z,93031.97
2023-04-16T15:04:43.572Z,93031.84
2023-04-16T15:07:10.319Z,93030.09
2023-04-16T15:09:36.826Z,93033.22
2023-04-16T15:12:04.169Z,93028.47
2023-04-16T15:14:30.763Z,93025.53
2023-04-16T15:16:57.267Z,93032.91
2023-04-16T15:19:23.751Z,93030.56
2023-04-16T15:21:50.389Z,93030.91
2023-04-16T15:24:16.860Z,93036.31
2023-04-16T15:26:43.421Z,93035.84
2023-04-16T15:29:09.989Z,93044.13
2023-04-16T15:31:36.430Z,93029.50
2023-04-16T15:34:02.920Z,93036.72
2023-04-16T15:36:29.407Z,93035.56
2023-04-16T15:38:56.165Z,93039.47
2023-04-16T15:41:22.674Z,93040.66
2023-04-16T15:43:49.359Z,93043.09
2023-04-16T15:46:16.241Z,93035.91
2023-04-16T15:48:42.760Z,93042.22
2023-04-16T15:51:09.242Z,93037.00
2023-04-16T15:53:35.741Z,93044.94
2023-04-16T15:56:02.205Z,93042.25
2023-04-16T15:58:28.672Z,93038.75
2023-04-16T16:00:55.346Z,93040.84
2023-04-16T16:03:21.910Z,93044.91
2023-04-16T16:05:48.681Z,93051.50
2023-04-16T16:08:15.612Z,93047.59
2023-04-16T16:10:42.442Z,93047.91
2023-04-16T16:13:12.985Z,93050.88
2023-04-16T16:15:40.895Z,93051.78
2023-04-16T16:18:07.515Z,93048.75
2023-04-16T16:20:34.804Z,93048.00
2023-04-16T16:23:01.377Z,93052.66
2023-04-16T16:25:28.032Z,93054.59
2023-04-16T16:27:54.526Z,93049.94
2023-04-16T16:30:21.024Z,93049.50
2023-04-16T16:32:47.508Z,93060.28
2023-04-16T16:35:14.020Z,93051.75
2023-04-16T16:37:40.598Z,93057.88
2023-04-16T16:40:07.722Z,93049.66
2023-04-16T16:42:34.375Z,93059.69
2023-04-16T16:45:05.057Z,93054.75
2023-04-16T16:47:32.379Z,93056.69
2023-04-16T16:50:00.089Z,93057.88
2023-04-16T16:52:28.685Z,93069.22
2023-04-16T16:54:56.705Z,93056.50
2023-04-16T16:57:26.246Z,93061.13
2023-04-16T16:59:54.254Z,93061.56
2023-04-16T17:02:20.761Z,93071.00
2023-04-16T17:04:47.304Z,93064.53
2023-04-16T17:07:13.776Z,93069.91
2023-04-16T17:09:40.373Z,93066.81
2023-04-16T17:12:06.845Z,93067.06
2023-04-16T17:14:33.569Z,93060.91
2023-04-16T17:17:00.311Z,93057.16
2023-04-16T17:19:27.394Z,93054.63
2023-04-16T17:21:54.286Z,93063.03
2023-04-16T17:24:20.983Z,93062.72
2023-04-16T17:26:47.516Z,93056.13
2023-04-16T17:29:14.018Z,93072.59
2023-04-16T17:31:40.643Z,93064.09
2023-04-16T17:34:07.166Z,93063.59
2023-04-16T17:36:33.636Z,93068.69
2023-04-16T17:39:00.173Z,93075.72
2023-04-16T17:41:26.683Z,93075.72
2023-04-16T17:43:53.272Z,93079.56
2023-04-16T17:46:19.935Z,93078.81
2023-04-16T17:48:48.716Z,93085.09
2023-04-16T17:51:16.461Z,93076.41
2023-04-16T17:53:43.472Z,93077.84
2023-04-16T17:56:10.554Z,93083.97
2023-04-16T17:58:37.126Z,93083.97
2023-04-16T18:01:03.770Z,93089.22
2023-04-16T18:03:31.240Z,93090.41
2023-04-16T18:05:57.882Z,93095.06
2023-04-16T18:08:24.578Z,93088.72
2023-04-16T18:10:51.491Z,93081.09
2023-04-16T18:13:18.363Z,93091.94
2023-04-16T18:15:44.851Z,93093.72
2023-04-16T18:18:11.347Z,93089.09
2023-04-16T18:20:37.858Z,93089.94
2023-04-16T18:23:04.327Z,93092.97
2023-04-16T18:25:35.043Z,93097.47
2023-04-16T18:28:03.549Z,93091.03
2023-04-16T18:30:30.067Z,93094.47
2023-04-16T18:33:19.492Z,93094.91
2023-04-16T18:35:43.048Z,93090.81
2023-04-16T18:38:09.594Z,93093.66
2023-04-16T18:40:36.702Z,93091.09
2023-04-16T18:43:03.702Z,93093.56
2023-04-16T18:45:30.871Z,93102.97
2023-04-16T18:48:00.206Z,93101.25
2023-04-16T18:50:26.715Z,93098.03
2023-04-16T18:52:53.177Z,93103.84
2023-04-16T18:55:20.029Z,93106.22
2023-04-16T18:57:46.582Z,93102.91
2023-04-16T19:00:13.667Z,93101.72
2023-04-16T19:02:40.586Z,93109.06
2023-04-16T19:05:08.178Z,93096.78
2023-04-16T19:07:35.258Z,93109.06
2023-04-16T19:10:04.826Z,93110.56
2023-04-16T19:12:31.848Z,93103.97
2023-04-16T19:14:58.364Z,93102.78
2023-04-16T19:17:24.871Z,93109.06
2023-04-16T19:19:51.561Z,93112.19
2023-04-16T19:22:18.009Z,93109.91
2023-04-16T19:24:44.556Z,93118.41
2023-04-16T19:27:11.112Z,93115.28
2023-04-16T19:29:37.570Z,93117.88
2023-04-16T19:32:04.204Z,93113.88
2023-04-16T19:34:30.958Z,93121.06
2023-04-16T19:36:57.560Z,93117.22
2023-04-16T19:39:29.988Z,93122.59
2023-04-16T19:41:56.507Z,93128.28
2023-04-16T19:44:23.212Z,93118.06
2023-04-16T19:46:50.200Z,93124.09
2023-04-16T19:49:16.719Z,93119.91
2023-04-16T19:51:43.258Z,93125.69
2023-04-16T19:54:09.752Z,93118.94
2023-04-16T19:56:36.552Z,93119.56
2023-04-16T19:59:03.116Z,93121.72
2023-04-16T20:01:31.193Z,93118.91
2023-04-16T20:03:57.790Z,93122.66
2023-04-16T20:06:25.215Z,93130.72
2023-04-16T20:08:51.711Z,93124.16
2023-04-16T20:11:18.187Z,93121.16
2023-04-16T20:13:47.997Z,93117.84
2023-04-16T20:16:14.642Z,93117.97
2023-04-16T20:18:42.461Z,93115.91
2023-04-16T20:21:09.451Z,93107.81
2023-04-16T20:23:35.964Z,93113.66
2023-04-16T20:26:02.458Z,93114.09
2023-04-16T20:28:28.907Z,93111.84
2023-04-16T20:30:55.514Z,93111.38
2023-04-16T20:33:22.015Z,93110.19
2023-04-16T20:35:50.747Z,93113.97
2023-04-16T20:38:18.295Z,93109.75
2023-04-16T20:40:45.006Z,93108.69
2023-04-16T20:43:14.071Z,93110.31
2023-04-16T20:45:40.976Z,93104.28
2023-04-16T20:48:07.836Z,93099.34
2023-04-16T20:50:34.365Z,93109.69
2023-04-16T20:53:00.816Z,93099.22
2023-04-16T20:55:27.357Z,93097.59
2023-04-16T20:57:53.842Z,93100.28
2023-04-16T21:00:20.559Z,93087.63
2023-04-16T21:02:47.109Z,93092.88
2023-04-16T21:05:14.598Z,93088.97
2023-04-16T21:07:41.757Z,93091.38
2023-04-16T21:10:09.611Z,93081.66
2023-04-16T21:12:36.462Z,93079.28
2023-04-16T21:15:03.972Z,93079.59
2023-04-16T21:17:30.523Z,93078.97
2023-04-16T21:19:57.086Z,93077.03
2023-04-16T21:22:23.635Z,93071.22
2023-04-16T21:24:50.092Z,93074.53
2023-04-16T21:27:16.599Z,93076.91
2023-04-16T21:29:43.079Z,93070.75
2023-04-16T21:32:09.561Z,93079.16
2023-04-16T21:34:36.021Z,93074.09
2023-04-16T21:37:02.813Z,93078.09
2023-04-16T21:39:30.885Z,93071.22
2023-04-16T21:41:57.973Z,93070.75
2023-04-16T21:44:24.752Z,93074.22
2023-04-16T21:46:51.567Z,93075.28
2023-04-16T21:49:18.127Z,93071.50
2023-04-16T21:51:46.068Z,93067.97
2023-04-16T21:54:12.586Z,93070.97
2023-04-16T21:56:39.095Z,93064.84
2023-04-16T21:59:05.603Z,93066.66
2023-04-16T22:01:32.140Z,93071.16
2023-04-16T22:03:58.762Z,93071.16
2023-04-16T22:06:27.035Z,93065.31
2023-04-16T22:08:53.540Z,93065.75
2023-04-16T22:11:20.005Z,93070.31
2023-04-16T22:13:47.784Z,93068.03
2023-04-16T22:16:14.418Z,93070.41
2023-04-16T22:18:41.118Z,93063.81
2023-04-16T22:21:07.708Z,93060.22
2023-04-16T22:23:34.217Z,93060.66
2023-04-16T22:26:02.669Z,93057.00
2023-04-16T22:28:29.212Z,93056.25
2023-04-16T22:30:56.330Z,93058.75
2023-04-16T22:33:22.785Z,93054.97
2023-04-16T22:35:49.257Z,93050.78
2023-04-16T22:38:16.445Z,93049.72
2023-04-16T22:40:42.948Z,93051.97
2023-04-16T22:43:09.448Z,93050.78
2023-04-16T22:45:37.390Z,93051.22
2023-04-16T22:48:04.156Z,93050.78
2023-04-16T22:50:31.971Z,93046.28
2023-04-16T22:52:58.463Z,93050.03
2023-04-16T22:55:24.930Z,93042.72
2023-04-16T22:57:51.468Z,93047.25
2023-04-16T23:00:18.265Z,93050.34
2023-04-16T23:02:44.934Z,93041.97
2023-04-16T23:05:11.747Z,93042.72
2023-04-16T23:07:38.338Z,93042.22
2023-04-16T23:10:05.395Z,93038.44
2023-04-16T23:12:31.901Z,93036.31
2023-04-16T23:15:00.418Z,93031.81
2023-04-16T23:17:27.185Z,93034.16
2023-04-16T23:19:53.722Z,93035.34
2023-04-16T23:22:20.180Z,93034.50
2023-04-16T23:24:46.804Z,93025.56
2023-04-16T23:27:13.255Z,93035.25
2023-04-16T23:29:39.783Z,93026.00
2023-04-16T23:32:06.371Z,93024.81
2023-04-16T23:34:32.812Z,93029.75
2023-04-16T23:36:59.300Z,93020.41
2023-04-16T23:39:26.154Z,93020.66
2023-04-16T23:41:52.633Z,93016.88
2023-04-16T23:44:19.122Z,93020.31
2023-04-16T23:46:45.808Z,93010.97
2023-04-16T23:49:12.398Z,93013.97
2023-04-16T23:51:38.884Z,93010.53
2023-04-16T23:54:05.361Z,93015.34
2023-04-16T23:56:31.866Z,93014.50
2023-04-16T23:58:58.379Z,93011.03
